Time;durP1;ratioP1;P1;durP2;ratioP2;P2;SDS_P1;SDS_P2;PMS_P1;PMS_P2;Temp;Humidity;BMP_temperature;BMP_pressure;BME280_temperature;BME280_humidity;BME280_pressure;Samples;Min_cycle;Max_cycle;Signal;HPM_P1;HPM_P2
2023/12/16 00:01:40;;;;;;;40.88;14.25;;;;;;;11.45;81.01;103169.16;5083884;27;98811;-75
2023/12/16 00:04:07;;;;;;;45.05;14.25;;;;;;;11.15;82.11;103162.13;5091350;27;97480;-75
2023/12/16 00:06:35;;;;;;;49.38;13.77;;;;;;;11.02;83.24;103152.41;5084808;27;97098;-74
2023/12/16 00:09:01;;;;;;;34.10;13.60;;;;;;;11.07;83.07;103150.63;5089249;27;96870;-75
2023/12/16 00:11:28;;;;;;;38.22;12.90;;;;;;;10.78;83.63;103151.47;5086678;27;101930;-76
2023/12/16 00:13:54;;;;;;;42.67;13.82;;;;;;;10.72;85.16;103150.59;5087534;27;101304;-75
2023/12/16 00:16:21;;;;;;;44.05;13.82;;;;;;;10.74;85.07;103146.19;5080168;27;98321;-73
2023/12/16 00:18:48;;;;;;;46.05;14.18;;;;;;;10.62;85.64;103148.81;5089279;27;97154;-74
2023/12/16 00:21:14;;;;;;;50.72;13.45;;;;;;;10.79;85.36;103158.53;5082729;27;99140;-75
2023/12/16 00:23:42;;;;;;;53.33;15.27;;;;;;;11.04;84.10;103166.50;5090971;27;101516;-75
2023/12/16 00:26:09;;;;;;;42.72;14.75;;;;;;;10.94;84.25;103162.09;5091273;27;96991;-74
2023/12/16 00:28:35;;;;;;;50.20;15.98;;;;;;;10.85;84.70;103155.00;5084546;27;98889;-75
2023/12/16 00:31:02;;;;;;;49.60;17.40;;;;;;;11.07;84.08;103163.88;5083400;27;100959;-75
2023/12/16 00:33:28;;;;;;;51.15;15.55;;;;;;;11.09;83.47;103159.47;5083635;27;99236;-74
2023/12/16 00:35:55;;;;;;;39.42;14.82;;;;;;;11.03;83.75;103149.72;5075658;27;96744;-76
2023/12/16 00:38:21;;;;;;;41.08;13.85;;;;;;;11.02;84.05;103153.28;5088600;27;96883;-74
2023/12/16 00:40:49;;;;;;;54.22;14.68;;;;;;;11.11;83.67;103144.44;5086964;27;97863;-75
2023/12/16 00:43:15;;;;;;;42.78;15.57;;;;;;;10.98;84.29;103145.31;5087780;27;98813;-73
2023/12/16 00:45:42;;;;;;;45.80;16.05;;;;;;;10.48;87.15;103148.78;5080419;27;96809;-74
2023/12/16 00:48:08;;;;;;;43.13;14.27;;;;;;;10.43;87.35;103145.25;5086750;27;97894;-74
2023/12/16 00:50:38;;;;;;;40.90;15.05;;;;;;;10.36;87.82;103135.53;5080044;27;99501;-75
2023/12/16 00:53:04;;;;;;;56.88;15.52;;;;;;;10.54;87.27;103142.63;5084937;27;101768;-75
2023/12/16 00:55:30;;;;;;;46.78;15.57;;;;;;;10.56;87.04;103147.03;5089284;27;97212;-73
2023/12/16 00:57:58;;;;;;;48.72;15.43;;;;;;;10.50;86.92;103149.63;5085905;27;96782;-73
2023/12/16 01:00:24;;;;;;;52.30;15.13;;;;;;;10.62;86.63;103147.06;5078485;27;98934;-73
2023/12/16 01:02:51;;;;;;;49.28;16.88;;;;;;;10.99;84.63;103158.56;5088092;27;99276;-73
2023/12/16 01:05:17;;;;;;;51.58;15.70;;;;;;;11.05;84.18;103157.69;5080647;27;97109;-73
2023/12/16 01:07:43;;;;;;;44.17;14.32;;;;;;;11.21;83.10;103164.75;5079505;27;96947;-73
2023/12/16 01:10:10;;;;;;;53.35;15.63;;;;;;;10.98;83.98;103182.38;5081828;27;98823;-72
2023/12/16 01:12:36;;;;;;;44.20;14.80;;;;;;;10.87;84.12;103184.13;5078818;27;98939;-72
2023/12/16 01:15:05;;;;;;;41.50;14.60;;;;;;;10.99;83.86;103184.13;5088419;27;96957;-73
2023/12/16 01:17:31;;;;;;;51.42;15.98;;;;;;;10.88;84.78;103175.31;5082815;27;96868;-74
2023/12/16 01:19:57;;;;;;;45.22;13.93;;;;;;;11.12;83.76;103173.56;5075163;27;98920;-73
2023/12/16 01:22:24;;;;;;;43.08;15.60;;;;;;;11.10;83.27;103179.72;5089591;27;99030;-73
2023/12/16 01:24:50;;;;;;;49.42;14.70;;;;;;;10.98;83.94;103169.13;5089934;27;96800;-74
2023/12/16 01:27:17;;;;;;;44.58;14.65;;;;;;;10.91;84.10;103170.00;5080085;27;98392;-73
2023/12/16 01:29:43;;;;;;;43.95;13.88;;;;;;;11.05;83.62;103163.88;5075993;27;99099;-74
2023/12/16 01:32:11;;;;;;;37.58;13.73;;;;;;;11.03;83.57;103170.91;5080742;27;98706;-74
2023/12/16 01:34:37;;;;;;;41.22;15.73;;;;;;;11.00;83.58;103172.69;5084859;27;96807;-73
2023/12/16 01:37:04;;;;;;;45.25;14.15;;;;;;;11.07;83.22;103170.03;5080880;27;96742;-72
2023/12/16 01:39:30;;;;;;;49.63;14.07;;;;;;;10.93;83.89;103179.72;5087350;27;99088;-72
2023/12/16 01:41:57;;;;;;;44.38;14.43;;;;;;;11.08;83.02;103173.56;5089643;27;98893;-73
2023/12/16 01:44:24;;;;;;;41.65;13.48;;;;;;;11.21;82.74;103178.00;5082321;27;96909;-73
2023/12/16 01:46:50;;;;;;;48.15;14.07;;;;;;;11.14;83.16;103173.56;5086159;27;97025;-73
2023/12/16 01:49:18;;;;;;;44.78;14.05;;;;;;;11.27;82.38;103178.00;5082066;27;98909;-73
2023/12/16 01:51:44;;;;;;;45.38;13.60;;;;;;;11.10;83.21;103177.97;5080818;27;99278;-73
2023/12/16 01:54:13;;;;;;;46.38;14.00;;;;;;;11.16;82.74;103183.25;5085768;27;96780;-73
2023/12/16 01:56:40;;;;;;;38.83;13.57;;;;;;;10.84;84.03;103185.00;5087830;27;96756;-73
2023/12/16 01:59:07;;;;;;;44.47;14.52;;;;;;;10.73;84.93;103197.31;5080049;27;97654;-72
2023/12/16 02:01:34;;;;;;;45.33;13.48;;;;;;;10.58;85.98;103203.44;5086301;27;98733;-73
2023/12/16 02:04:00;;;;;;;42.38;13.60;;;;;;;10.65;85.63;103199.03;5071179;27;98631;-73
2023/12/16 02:06:28;;;;;;;36.90;13.68;;;;;;;10.70;85.20;103198.19;5077727;27;99476;-74
2023/12/16 02:08:54;;;;;;;40.50;13.57;;;;;;;10.91;84.72;103201.75;5073793;27;99232;-74
2023/12/16 02:11:21;;;;;;;38.50;12.63;;;;;;;11.05;84.07;103205.31;5085396;27;98771;-73
2023/12/16 02:13:50;;;;;;;45.63;13.68;;;;;;;11.04;83.22;103200.88;5081647;27;97243;-73
2023/12/16 02:16:16;;;;;;;41.28;13.50;;;;;;;10.32;87.02;103198.03;5079971;27;96836;-73
2023/12/16 02:18:43;;;;;;;45.65;13.85;;;;;;;10.37;87.47;103195.44;5079054;27;101040;-73
2023/12/16 02:21:09;;;;;;;40.13;13.02;;;;;;;10.50;86.81;103189.28;5079503;27;101141;-73
2023/12/16 02:23:39;;;;;;;41.20;12.90;;;;;;;10.65;86.15;103177.88;5080394;27;98921;-73
2023/12/16 02:26:05;;;;;;;42.03;12.85;;;;;;;10.73;85.49;103170.88;5072628;27;96829;-73
2023/12/16 02:28:32;;;;;;;41.38;13.45;;;;;;;10.71;85.55;103173.50;5086333;27;99323;-72
2023/12/16 02:30:58;;;;;;;33.90;12.60;;;;;;;10.80;85.03;103172.66;5087687;27;98834;-73
2023/12/16 02:33:24;;;;;;;42.95;13.43;;;;;;;10.71;84.72;103168.22;5079548;27;96877;-73
2023/12/16 02:35:51;;;;;;;44.72;12.95;;;;;;;10.73;85.42;103171.75;5086340;27;97855;-74
2023/12/16 02:38:17;;;;;;;42.70;13.68;;;;;;;10.76;85.02;103182.31;5082062;27;99154;-73
2023/12/16 02:40:45;;;;;;;41.83;13.25;;;;;;;10.55;86.12;103182.28;5082509;27;98116;-73
2023/12/16 02:43:11;;;;;;;37.35;12.90;;;;;;;10.43;86.29;103191.94;5081497;27;98739;-73
2023/12/16 02:45:37;;;;;;;44.47;13.70;;;;;;;10.55;86.35;103198.16;5085726;27;98283;-73
2023/12/16 02:48:04;;;;;;;36.92;13.73;;;;;;;10.42;86.74;103188.41;5084678;27;98431;-74
2023/12/16 02:50:30;;;;;;;44.50;12.98;;;;;;;10.47;87.28;103191.06;5082152;27;98812;-73
2023/12/16 02:52:57;;;;;;;38.90;12.10;;;;;;;10.24;87.60;103185.69;5080978;27;99241;-73
2023/12/16 02:55:23;;;;;;;47.90;14.25;;;;;;;10.59;85.93;103186.69;5089615;27;96796;-74
2023/12/16 02:57:51;;;;;;;45.42;15.45;;;;;;;10.91;84.94;103188.53;5090498;27;98956;-73
2023/12/16 03:00:17;;;;;;;37.28;14.15;;;;;;;11.03;83.69;103176.19;5091809;27;101221;-73
2023/12/16 03:02:44;;;;;;;41.83;13.75;;;;;;;11.04;83.67;103190.31;5084980;27;97111;-74
2023/12/16 03:05:10;;;;;;;52.25;14.75;;;;;;;10.93;83.85;103179.72;5087447;27;96902;-74
2023/12/16 03:07:38;;;;;;;45.05;14.13;;;;;;;11.08;83.23;103186.81;5084577;27;98893;-73
2023/12/16 03:10:05;;;;;;;44.42;14.40;;;;;;;10.74;84.14;103194.69;5088216;27;98978;-75
2023/12/16 03:12:31;;;;;;;42.88;14.68;;;;;;;10.92;84.21;103203.53;5090052;27;97203;-74
2023/12/16 03:14:59;;;;;;;42.95;14.45;;;;;;;10.97;83.65;103197.34;5092575;27;96781;-74
2023/12/16 03:17:25;;;;;;;54.90;14.30;;;;;;;10.83;84.35;103193.78;5086641;27;98988;-74
2023/12/16 03:19:51;;;;;;;50.78;14.88;;;;;;;10.89;84.33;103200.88;5085785;27;99044;-75
2023/12/16 03:22:18;;;;;;;41.00;15.05;;;;;;;10.94;84.77;103201.78;5080389;27;97037;-73
2023/12/16 03:24:45;;;;;;;48.58;15.68;;;;;;;11.19;83.40;103206.22;5084578;27;100339;-73
2023/12/16 03:27:12;;;;;;;43.58;16.65;;;;;;;10.61;85.79;103198.16;5091147;27;101945;-74
2023/12/16 03:29:38;;;;;;;46.55;15.43;;;;;;;10.91;85.12;103207.03;5083352;27;99182;-74
2023/12/16 03:32:06;;;;;;;41.60;16.55;;;;;;;10.91;84.68;103214.97;5084474;27;97975;-75
2023/12/16 03:34:32;;;;;;;54.53;15.95;;;;;;;10.78;85.47;103224.66;5079393;27;97485;-74
2023/12/16 03:36:59;;;;;;;48.38;16.42;;;;;;;11.02;85.22;103234.44;5083972;27;99832;-74
2023/12/16 03:39:25;;;;;;;53.85;17.50;;;;;;;11.23;83.28;103237.09;5083872;27;99150;-74
2023/12/16 03:41:51;;;;;;;48.17;17.10;;;;;;;11.01;84.35;103225.59;5083551;27;98159;-74
2023/12/16 03:44:18;;;;;;;51.22;16.88;;;;;;;11.07;84.35;103220.31;5080905;27;97057;-75
2023/12/16 03:46:44;;;;;;;52.92;17.55;;;;;;;11.10;84.04;103230.00;5089315;27;97684;-75
2023/12/16 03:49:12;;;;;;;51.20;18.05;;;;;;;11.18;83.77;103231.78;5079271;27;98805;-75
2023/12/16 03:51:38;;;;;;;48.25;18.83;;;;;;;11.24;83.98;103222.09;5080038;27;96839;-74
2023/12/16 03:54:05;;;;;;;48.13;17.20;;;;;;;11.11;83.70;103221.19;5080094;27;98427;-75
2023/12/16 03:56:31;;;;;;;47.58;17.83;;;;;;;11.22;83.54;103211.53;5085842;27;98986;-75
2023/12/16 03:58:58;;;;;;;46.53;19.30;;;;;;;10.86;84.89;103204.41;5086214;27;99204;-75
2023/12/16 04:01:24;;;;;;;51.67;18.88;;;;;;;11.12;84.12;103215.03;5083829;27;97193;-76
2023/12/16 04:03:51;;;;;;;47.58;18.40;;;;;;;10.86;85.12;103214.09;5087764;27;97900;-73
2023/12/16 04:06:18;;;;;;;52.20;20.42;;;;;;;10.96;84.93;103224.69;5083723;27;99139;-73
2023/12/16 04:08:44;;;;;;;54.15;20.25;;;;;;;11.11;84.43;103221.19;5086558;27;98789;-73
2023/12/16 04:11:11;;;;;;;57.20;20.02;;;;;;;11.15;83.74;103218.56;5076812;27;96835;-74
2023/12/16 04:13:37;;;;;;;53.58;18.40;;;;;;;10.41;87.66;103215.72;5087525;27;98798;-73
2023/12/16 04:16:05;;;;;;;49.10;18.65;;;;;;;10.71;86.53;103212.28;5078822;27;98725;-73
2023/12/16 04:18:31;;;;;;;45.13;18.35;;;;;;;10.96;85.09;103214.09;5085041;27;100685;-73
2023/12/16 04:20:59;;;;;;;54.25;18.27;;;;;;;10.53;86.40;103221.03;5078915;27;96897;-73
2023/12/16 04:23:26;;;;;;;59.50;16.77;;;;;;;10.76;85.51;103219.34;5083088;27;97079;-73
2023/12/16 04:25:53;;;;;;;52.10;18.42;;;;;;;10.92;84.66;103225.56;5084952;27;99402;-73
2023/12/16 04:28:19;;;;;;;54.70;17.95;;;;;;;10.85;84.89;103212.31;5083996;27;99862;-73
2023/12/16 04:30:45;;;;;;;46.55;16.95;;;;;;;11.24;83.41;103217.69;5083724;27;97643;-73
2023/12/16 04:33:12;;;;;;;61.95;18.77;;;;;;;11.26;82.53;103213.28;5084959;27;96960;-73
2023/12/16 04:35:38;;;;;;;56.08;16.40;;;;;;;11.08;83.21;103207.97;5084845;27;100377;-73
2023/12/16 04:38:04;;;;;;;53.92;16.90;;;;;;;10.88;84.43;103212.34;5075278;27;99295;-73
2023/12/16 04:40:32;;;;;;;49.25;17.10;;;;;;;10.53;86.15;103207.81;5080725;27;96821;-73
2023/12/16 04:42:58;;;;;;;42.28;16.35;;;;;;;10.59;85.90;103215.78;5081162;27;97692;-73
2023/12/16 04:45:25;;;;;;;47.20;16.35;;;;;;;10.56;86.29;103215.78;5082803;27;99203;-73
2023/12/16 04:47:51;;;;;;;47.42;17.75;;;;;;;10.68;86.01;103210.53;5088043;27;99399;-73
2023/12/16 04:50:17;;;;;;;45.63;16.90;;;;;;;10.78;85.25;103211.41;5085323;27;96775;-73
2023/12/16 04:52:44;;;;;;;46.78;18.95;;;;;;;10.90;85.05;103216.75;5080202;27;97632;-73
2023/12/16 04:55:11;;;;;;;55.92;19.10;;;;;;;10.68;85.49;103207.88;5083663;27;98940;-73
2023/12/16 04:57:38;;;;;;;49.22;18.30;;;;;;;10.65;85.72;103217.56;5084117;27;99048;-73
2023/12/16 05:00:06;;;;;;;46.88;18.30;;;;;;;11.05;84.11;103218.53;5075157;27;96848;-74
2023/12/16 05:02:34;;;;;;;50.40;18.67;;;;;;;11.04;83.18;103227.34;5082856;27;96800;-73
2023/12/16 05:05:00;;;;;;;48.65;18.25;;;;;;;11.06;83.40;103228.25;5085821;27;99561;-73
2023/12/16 05:07:26;;;;;;;49.63;18.55;;;;;;;11.02;83.31;103223.84;5084785;27;98377;-74
2023/12/16 05:09:53;;;;;;;56.58;17.83;;;;;;;10.72;84.36;103219.34;5073576;27;97646;-73
2023/12/16 05:12:19;;;;;;;46.92;20.15;;;;;;;10.69;84.97;103222.88;5083059;27;97229;-73
2023/12/16 05:14:47;;;;;;;49.15;17.50;;;;;;;10.56;84.69;103226.34;5081775;27;97738;-73
2023/12/16 05:17:13;;;;;;;45.22;16.90;;;;;;;10.77;84.81;103215.81;5080133;27;99379;-73
2023/12/16 05:19:39;;;;;;;58.38;21.00;;;;;;;10.72;84.77;103212.28;5086716;27;97571;-73
2023/12/16 05:22:06;;;;;;;44.95;18.48;;;;;;;10.64;84.43;103208.72;5084643;27;96737;-74
2023/12/16 05:24:32;;;;;;;48.90;17.20;;;;;;;10.64;84.55;103219.31;5079739;27;99554;-75
2023/12/16 05:26:58;;;;;;;44.05;17.45;;;;;;;10.59;84.87;103221.06;5086033;27;98652;-75
2023/12/16 05:29:24;;;;;;;50.40;17.77;;;;;;;10.58;84.39;103221.06;5075798;27;96814;-75
2023/12/16 05:31:52;;;;;;;39.85;16.27;;;;;;;10.46;85.60;103219.25;5079402;27;96829;-74
2023/12/16 05:34:18;;;;;;;44.83;17.27;;;;;;;10.56;84.95;103225.47;5082463;27;99115;-74
2023/12/16 05:36:47;;;;;;;45.42;17.02;;;;;;;10.54;84.99;103222.81;5089118;27;100805;-74
2023/12/16 05:39:13;;;;;;;43.20;16.88;;;;;;;10.59;84.62;103247.50;5078133;27;98106;-74
2023/12/16 05:41:39;;;;;;;43.83;17.30;;;;;;;10.45;85.06;103238.63;5083565;27;98186;-73
2023/12/16 05:44:06;;;;;;;44.22;17.27;;;;;;;10.63;84.16;103245.78;5088922;27;99237;-74
2023/12/16 05:46:32;;;;;;;37.22;16.30;;;;;;;10.66;83.95;103241.38;5081182;27;99291;-73
2023/12/16 05:49:00;;;;;;;46.83;15.95;;;;;;;10.37;84.82;103249.16;5079884;27;97085;-73
2023/12/16 05:51:26;;;;;;;52.67;16.10;;;;;;;10.33;84.98;103243.84;5079469;27;97628;-73
2023/12/16 05:53:52;;;;;;;45.67;15.52;;;;;;;10.50;84.49;103252.75;5080756;27;99144;-74
2023/12/16 05:56:19;;;;;;;47.70;16.35;;;;;;;10.58;83.84;103242.19;5078651;27;98949;-74
2023/12/16 05:58:45;;;;;;;47.90;14.32;;;;;;;10.44;84.29;103254.47;5073566;27;97581;-74
2023/12/16 06:01:11;;;;;;;46.20;15.52;;;;;;;10.57;84.10;103254.53;5083050;27;96897;-74
2023/12/16 06:03:38;;;;;;;38.17;14.38;;;;;;;10.55;83.04;103245.75;5083673;27;98890;-74
2023/12/16 06:06:06;;;;;;;43.00;13.65;;;;;;;10.60;82.71;103254.56;5082029;27;98040;-74
2023/12/16 06:08:32;;;;;;;42.15;14.00;;;;;;;10.82;82.07;103263.47;5083600;27;99519;-73
2023/12/16 06:10:58;;;;;;;31.92;13.13;;;;;;;10.77;82.19;103268.72;5082004;27;97052;-74
2023/12/16 06:13:25;;;;;;;45.63;13.45;;;;;;;10.96;81.36;103274.09;5084419;27;99779;-73
2023/12/16 06:15:51;;;;;;;39.28;13.10;;;;;;;10.85;81.88;103270.50;5087168;27;100633;-73
2023/12/16 06:18:17;;;;;;;35.30;12.45;;;;;;;10.84;81.71;103266.09;5085785;27;98417;-73
2023/12/16 06:20:44;;;;;;;34.95;12.55;;;;;;;10.89;81.25;103267.03;5084667;27;96765;-73
2023/12/16 06:23:11;;;;;;;38.45;13.63;;;;;;;10.94;80.68;103267.91;5084045;27;100697;-72
2023/12/16 06:25:38;;;;;;;34.10;13.45;;;;;;;10.94;80.94;103265.25;5085208;27;98981;-75
2023/12/16 06:28:04;;;;;;;35.67;12.40;;;;;;;10.68;81.61;103273.09;5077798;27;96875;-73
2023/12/16 06:30:31;;;;;;;40.78;12.65;;;;;;;10.81;81.49;103268.75;5083481;27;96781;-74
2023/12/16 06:32:57;;;;;;;49.70;12.40;;;;;;;11.15;79.63;103260.03;5090911;27;98977;-74
2023/12/16 06:35:23;;;;;;;41.65;12.60;;;;;;;10.66;81.29;103248.41;5080694;27;99223;-74
2023/12/16 06:37:50;;;;;;;35.83;11.60;;;;;;;11.11;80.04;103229.13;5086956;27;96710;-75
2023/12/16 06:40:17;;;;;;;37.70;12.07;;;;;;;10.83;80.66;103224.69;5085576;27;97464;-75
2023/12/16 06:42:44;;;;;;;35.65;11.52;;;;;;;10.86;80.66;103225.56;5083647;27;98203;-73
2023/12/16 06:45:10;;;;;;;32.50;11.25;;;;;;;10.29;83.43;103229.75;5077181;27;99167;-74
2023/12/16 06:47:40;;;;;;;32.65;11.00;;;;;;;10.34;83.53;103230.66;5079630;27;96877;-76
2023/12/16 06:50:08;;;;;;;35.00;11.52;;;;;;;10.45;82.99;103245.66;5089884;27;98827;-75
2023/12/16 06:52:35;;;;;;;40.03;11.02;;;;;;;10.73;81.17;103256.38;5079768;27;97737;-75
2023/12/16 06:55:02;;;;;;;38.85;10.32;;;;;;;10.80;80.59;103259.94;5074372;27;99211;-76
2023/12/16 06:57:29;;;;;;;30.27;10.40;;;;;;;10.96;80.25;103261.72;5083453;27;96968;-75
2023/12/16 06:59:56;;;;;;;32.50;10.00;;;;;;;10.99;79.72;103259.09;5083806;27;97091;-75
2023/12/16 07:02:22;;;;;;;33.10;9.90;;;;;;;10.91;79.86;103271.41;5084914;27;98037;-75
2023/12/16 07:04:48;;;;;;;39.25;10.90;;;;;;;11.03;79.01;103270.56;5088251;27;98642;-75
2023/12/16 07:07:15;;;;;;;36.50;10.00;;;;;;;11.11;78.72;103260.88;5089117;27;96781;-74
2023/12/16 07:09:41;;;;;;;36.90;10.30;;;;;;;11.21;77.97;103254.75;5085893;27;96920;-75
2023/12/16 07:12:08;;;;;;;29.98;9.00;;;;;;;10.86;79.19;103261.69;5080850;27;101602;-74
2023/12/16 07:14:36;;;;;;;30.88;10.00;;;;;;;10.96;78.58;103276.75;5084891;27;98811;-75
2023/12/16 07:17:02;;;;;;;31.27;9.15;;;;;;;10.95;78.93;103277.63;5078179;27;97025;-75
2023/12/16 07:19:30;;;;;;;32.35;9.77;;;;;;;10.62;80.12;103273.97;5082975;27;96795;-74
2023/12/16 07:21:56;;;;;;;34.70;9.68;;;;;;;10.75;79.35;103269.63;5080305;27;97838;-74
2023/12/16 07:24:22;;;;;;;31.38;9.55;;;;;;;10.39;80.90;103260.63;5082331;27;99135;-74
2023/12/16 07:26:49;;;;;;;34.95;9.48;;;;;;;10.47;80.50;103260.66;5086928;27;96839;-73
2023/12/16 07:29:16;;;;;;;29.13;9.48;;;;;;;10.44;80.65;103258.00;5077575;27;98935;-73
2023/12/16 07:31:47;;;;;;;33.05;9.35;;;;;;;10.58;79.69;103258.06;5087583;27;99027;-75
2023/12/16 07:34:13;;;;;;;30.00;8.90;;;;;;;10.73;78.51;103261.66;5080942;27;97522;-74
2023/12/16 07:36:39;;;;;;;26.50;7.05;;;;;;;10.65;78.77;103266.03;5075074;27;101090;-74
2023/12/16 07:39:06;;;;;;;33.22;9.73;;;;;;;10.62;79.67;103267.78;5079175;27;96836;-74
2023/12/16 07:41:34;;;;;;;28.60;8.65;;;;;;;10.96;77.95;103263.50;5089735;27;102236;-71
2023/12/16 07:44:01;;;;;;;28.77;9.25;;;;;;;10.85;77.59;103254.63;5085434;27;99721;-73
2023/12/16 07:46:27;;;;;;;30.25;9.45;;;;;;;10.87;77.58;103263.47;5084715;27;99385;-72
2023/12/16 07:48:55;;;;;;;24.33;8.20;;;;;;;10.34;79.01;103266.78;5082047;27;97331;-73
2023/12/16 07:51:25;;;;;;;33.30;8.50;;;;;;;10.26;79.96;103266.72;5076016;27;99482;-71
2023/12/16 07:53:51;;;;;;;29.23;8.57;;;;;;;10.76;78.19;103266.94;5082991;27;101549;-72
2023/12/16 07:56:20;;;;;;;21.15;8.38;;;;;;;10.56;79.10;103276.59;5087765;27;96753;-73
2023/12/16 07:58:47;;;;;;;29.08;9.13;;;;;;;10.65;77.82;103281.91;5079498;27;97894;-72
2023/12/16 08:01:13;;;;;;;27.90;9.50;;;;;;;10.76;77.15;103285.47;5082776;27;98977;-72
2023/12/16 08:03:40;;;;;;;25.48;8.20;;;;;;;10.64;77.10;103281.88;5086450;27;100250;-71
2023/12/16 08:06:08;;;;;;;24.48;8.50;;;;;;;10.83;76.59;103282.88;5089685;27;96735;-72
2023/12/16 08:08:35;;;;;;;22.60;8.90;;;;;;;11.07;75.30;103291.75;5086410;27;97679;-73
2023/12/16 08:11:01;;;;;;;28.38;8.38;;;;;;;11.27;74.34;103294.44;5079765;27;98835;-72
2023/12/16 08:13:28;;;;;;;24.65;7.78;;;;;;;11.21;73.37;103302.38;5083594;27;98760;-74
2023/12/16 08:15:54;;;;;;;22.17;7.65;;;;;;;11.12;74.27;103300.59;5081539;27;96773;-73
2023/12/16 08:18:23;;;;;;;21.85;7.78;;;;;;;10.82;74.61;103310.19;5086417;27;96917;-75
2023/12/16 08:20:50;;;;;;;22.85;7.32;;;;;;;10.71;75.13;103311.00;5081458;27;98856;-73
2023/12/16 08:23:19;;;;;;;23.02;7.32;;;;;;;10.72;75.32;103314.53;5087307;27;98848;-74
2023/12/16 08:25:46;;;;;;;20.25;6.72;;;;;;;10.68;75.56;103311.03;5088986;27;97088;-75
2023/12/16 08:28:12;;;;;;;30.75;7.97;;;;;;;11.00;73.91;103299.66;5069148;27;97798;-75
2023/12/16 08:30:39;;;;;;;25.20;7.35;;;;;;;10.58;74.79;103298.59;5085939;27;100752;-75
2023/12/16 08:33:06;;;;;;;23.75;8.20;;;;;;;10.81;74.55;103304.00;5085731;27;98761;-75
2023/12/16 08:35:32;;;;;;;17.60;6.35;;;;;;;10.78;73.79;103291.66;5083920;27;97119;-74
2023/12/16 08:38:00;;;;;;;21.63;7.18;;;;;;;10.68;74.44;103294.25;5080004;27;96943;-74
2023/12/16 08:40:28;;;;;;;20.85;6.50;;;;;;;10.25;75.84;103288.75;5084876;27;99006;-75
2023/12/16 08:42:55;;;;;;;23.35;7.88;;;;;;;10.45;75.48;103298.53;5079993;27;97648;-75
2023/12/16 08:45:21;;;;;;;22.95;6.55;;;;;;;10.64;74.07;103293.34;5086115;27;96828;-75
2023/12/16 08:47:48;;;;;;;21.95;6.30;;;;;;;10.87;73.00;103289.94;5079851;27;96818;-75
2023/12/16 08:50:14;;;;;;;24.05;6.82;;;;;;;10.77;72.10;103287.22;5084787;27;101352;-76
2023/12/16 08:52:42;;;;;;;22.77;6.18;;;;;;;11.15;71.60;103291.78;5083895;27;98820;-75
2023/12/16 08:55:09;;;;;;;20.15;6.60;;;;;;;11.35;70.13;103283.88;5083091;27;97637;-75
2023/12/16 08:57:37;;;;;;;23.05;5.00;;;;;;;11.19;70.37;103285.59;5081851;27;97112;-74
2023/12/16 09:00:04;;;;;;;22.35;5.80;;;;;;;10.92;70.49;103286.41;5078296;27;99098;-75
2023/12/16 09:02:30;;;;;;;23.98;5.88;;;;;;;11.27;69.24;103290.91;5079244;27;98211;-75
2023/12/16 09:04:57;;;;;;;17.83;5.85;;;;;;;11.19;68.79;103304.13;5078771;27;96772;-75
2023/12/16 09:07:24;;;;;;;13.20;4.25;;;;;;;11.00;70.00;103289.09;5080908;27;97287;-76
2023/12/16 09:09:50;;;;;;;18.00;4.47;;;;;;;11.29;69.29;103283.88;5079585;27;97840;-75
2023/12/16 09:12:16;;;;;;;19.48;5.50;;;;;;;11.21;68.50;103275.91;5083234;27;98580;-75
2023/12/16 09:14:44;;;;;;;19.33;4.82;;;;;;;11.31;67.72;103277.69;5085252;27;97051;-75
2023/12/16 09:17:10;;;;;;;19.90;4.47;;;;;;;11.26;68.21;103279.44;5085114;27;97795;-76
2023/12/16 09:19:37;;;;;;;16.20;4.22;;;;;;;11.14;68.21;103272.38;5080662;27;99242;-75
2023/12/16 09:22:04;;;;;;;19.30;5.25;;;;;;;11.29;67.62;103279.44;5087573;27;99115;-75
2023/12/16 09:24:31;;;;;;;19.48;4.57;;;;;;;11.62;66.38;103281.22;5081749;27;96766;-76
2023/12/16 09:26:57;;;;;;;15.15;4.03;;;;;;;11.46;66.68;103274.19;5078426;27;96874;-76
2023/12/16 09:29:24;;;;;;;16.10;3.67;;;;;;;11.49;66.22;103275.06;5081472;27;98133;-75
2023/12/16 09:31:52;;;;;;;17.40;4.07;;;;;;;11.50;65.89;103268.88;5073575;27;98848;-74
2023/12/16 09:34:19;;;;;;;16.95;4.13;;;;;;;11.64;65.53;103270.66;5085580;27;97562;-76
2023/12/16 09:36:46;;;;;;;14.68;3.65;;;;;;;11.87;65.49;103275.09;5080850;27;97240;-75
2023/12/16 09:39:12;;;;;;;17.05;4.53;;;;;;;11.72;65.01;103255.66;5081193;27;98918;-75
2023/12/16 09:41:44;;;;;;;10.10;3.00;;;;;;;11.81;64.65;103269.81;5080207;27;96740;-75
2023/12/16 09:44:14;;;;;;;14.85;3.70;;;;;;;11.61;65.44;103262.72;5073149;27;97236;-76
2023/12/16 09:46:41;;;;;;;16.77;3.47;;;;;;;11.89;65.04;103272.44;5078919;27;96953;-75
2023/12/16 09:49:09;;;;;;;23.85;3.88;;;;;;;12.01;63.74;103266.25;5080377;27;101331;-75
2023/12/16 09:51:36;;;;;;;12.70;2.97;;;;;;;12.25;62.32;103283.00;5080608;27;100960;-75
2023/12/16 09:54:03;;;;;;;14.23;3.20;;;;;;;11.93;63.58;103285.69;5077676;27;96850;-74
2023/12/16 09:56:30;;;;;;;17.80;3.60;;;;;;;12.06;62.91;103302.47;5080202;27;97230;-74
2023/12/16 09:58:58;;;;;;;15.30;3.28;;;;;;;11.92;63.32;103294.53;5077463;27;100946;-74
2023/12/16 10:01:24;;;;;;;19.63;3.22;;;;;;;11.55;63.88;103298.88;5081442;27;98752;-74
2023/12/16 10:03:51;;;;;;;23.00;3.63;;;;;;;11.26;65.21;103286.50;5084987;27;97315;-75
2023/12/16 10:06:18;;;;;;;18.83;3.22;;;;;;;11.73;64.71;103283.91;5081436;27;96820;-76
2023/12/16 10:08:46;;;;;;;16.38;3.17;;;;;;;11.64;63.99;103268.00;5079673;27;98164;-74
2023/12/16 10:11:13;;;;;;;13.80;3.50;;;;;;;11.67;64.90;103262.72;5073827;27;98983;-74
2023/12/16 10:13:55;;;;;;;16.27;3.45;;;;;;;11.74;63.69;103261.88;5079494;27;96797;-75
2023/12/16 10:16:23;;;;;;;16.90;3.88;;;;;;;11.28;65.10;103251.22;5068226;27;97242;-74
2023/12/16 10:18:51;;;;;;;16.38;3.47;;;;;;;11.38;65.11;103245.03;5070925;27;101833;-75
2023/12/16 10:21:22;;;;;;;15.38;3.35;;;;;;;11.52;64.44;103235.34;5083794;27;97567;-75
2023/12/16 10:23:49;;;;;;;19.08;3.55;;;;;;;11.78;63.91;103226.53;5072451;27;98534;-75
2023/12/16 10:26:15;;;;;;;22.20;3.63;;;;;;;11.95;63.33;103222.06;5081805;27;97221;-75
2023/12/16 10:28:45;;;;;;;16.65;3.80;;;;;;;12.04;62.21;103219.41;5072980;27;101128;-76
2023/12/16 10:31:12;;;;;;;15.13;2.95;;;;;;;11.70;63.01;103228.25;5074127;27;98631;-75
2023/12/16 10:33:41;;;;;;;22.67;3.08;;;;;;;11.61;63.19;103223.00;5073560;27;97344;-75
2023/12/16 10:36:09;;;;;;;10.15;3.42;;;;;;;12.01;62.65;103235.34;5081907;27;96926;-77
2023/12/16 10:38:37;;;;;;;17.17;2.90;;;;;;;12.14;61.52;103237.03;5084250;27;102128;-75
2023/12/16 10:41:04;;;;;;;9.88;3.20;;;;;;;12.02;61.99;103237.09;5079028;27;100897;-75
2023/12/16 10:43:30;;;;;;;13.50;3.17;;;;;;;12.27;60.90;103235.28;5072064;27;97126;-75
2023/12/16 10:46:03;;;;;;;21.27;3.22;;;;;;;12.41;60.68;103221.94;5078713;27;96908;-75
2023/12/16 10:48:33;;;;;;;12.93;3.47;;;;;;;12.13;61.56;103227.34;5083050;27;98879;-76
2023/12/16 10:51:01;;;;;;;13.57;3.33;;;;;;;12.39;61.00;103227.28;5083049;27;101876;-76
2023/12/16 10:53:37;;;;;;;21.00;3.50;;;;;;;12.48;60.57;103229.88;5081772;27;96797;-75
2023/12/16 10:56:18;;;;;;;18.90;3.15;;;;;;;12.60;59.84;103226.31;5081248;27;97358;-75
2023/12/16 10:58:52;;;;;;;20.75;3.45;;;;;;;12.89;59.21;103228.78;5083114;27;101745;-76
2023/12/16 11:01:20;;;;;;;18.33;3.28;;;;;;;13.07;58.58;103224.25;5079739;27;101672;-75
2023/12/16 11:03:52;;;;;;;19.15;3.55;;;;;;;13.00;58.48;103211.00;5082572;27;97136;-75
2023/12/16 11:06:27;;;;;;;14.75;3.17;;;;;;;13.12;57.54;103198.59;5074711;27;96990;-74
2023/12/16 11:08:57;;;;;;;16.00;2.92;;;;;;;12.98;58.31;103199.53;5082079;27;98774;-74
2023/12/16 11:11:25;;;;;;;17.23;3.33;;;;;;;13.43;56.90;103196.56;5080118;27;98031;-76